sensor_id;sensor_type;location;lat;lon;timestamp;P1;durP1;ratioP1;P2;durP2;ratioP2
1414;SDS011;702;49.466;11.086;2023-03-03T00:00:12;40.30;;;22.90;;
1414;SDS011;702;49.466;11.086;2023-03-03T00:02:40;43.73;;;28.47;;
1414;SDS011;702;49.466;11.086;2023-03-03T00:05:08;39.50;;;25.60;;
1414;SDS011;702;49.466;11.086;2023-03-03T00:07:39;37.40;;;25.17;;
1414;SDS011;702;49.466;11.086;2023-03-03T00:10:09;38.50;;;26.73;;
1414;SDS011;702;49.466;11.086;2023-03-03T00:12:43;38.00;;;24.37;;
1414;SDS011;702;49.466;11.086;2023-03-03T00:15:14;33.53;;;24.10;;
1414;SDS011;702;49.466;11.086;2023-03-03T00:17:43;35.23;;;22.57;;
1414;SDS011;702;49.466;11.086;2023-03-03T00:20:26;32.97;;;22.50;;
1414;SDS011;702;49.466;11.086;2023-03-03T00:23:05;31.60;;;22.43;;
1414;SDS011;702;49.466;11.086;2023-03-03T00:25:45;34.40;;;23.07;;
1414;SDS011;702;49.466;11.086;2023-03-03T00:28:20;30.27;;;21.67;;
1414;SDS011;702;49.466;11.086;2023-03-03T00:30:52;36.53;;;21.70;;
1414;SDS011;702;49.466;11.086;2023-03-03T00:33:24;30.53;;;20.03;;
1414;SDS011;702;49.466;11.086;2023-03-03T00:36:08;32.73;;;20.63;;
1414;SDS011;702;49.466;11.086;2023-03-03T00:38:53;37.50;;;23.20;;
1414;SDS011;702;49.466;11.086;2023-03-03T00:41:26;30.07;;;20.37;;
1414;SDS011;702;49.466;11.086;2023-03-03T00:43:56;27.70;;;20.77;;
1414;SDS011;702;49.466;11.086;2023-03-03T00:46:23;33.23;;;21.53;;
1414;SDS011;702;49.466;11.086;2023-03-03T00:48:51;32.60;;;21.10;;
1414;SDS011;702;49.466;11.086;2023-03-03T00:51:23;32.47;;;20.90;;
1414;SDS011;702;49.466;11.086;2023-03-03T00:53:54;34.40;;;21.80;;
1414;SDS011;702;49.466;11.086;2023-03-03T00:56:22;34.20;;;22.57;;
1414;SDS011;702;49.466;11.086;2023-03-03T00:58:50;35.03;;;22.90;;
1414;SDS011;702;49.466;11.086;2023-03-03T01:01:18;39.40;;;21.67;;
1414;SDS011;702;49.466;11.086;2023-03-03T01:03:46;32.13;;;21.57;;
1414;SDS011;702;49.466;11.086;2023-03-03T01:06:13;32.47;;;21.90;;
1414;SDS011;702;49.466;11.086;2023-03-03T01:08:41;34.77;;;23.60;;
1414;SDS011;702;49.466;11.086;2023-03-03T01:11:09;36.50;;;23.83;;
1414;SDS011;702;49.466;11.086;2023-03-03T01:13:41;38.20;;;23.10;;
1414;SDS011;702;49.466;11.086;2023-03-03T01:16:09;33.13;;;21.83;;
1414;SDS011;702;49.466;11.086;2023-03-03T01:18:38;34.60;;;23.90;;
1414;SDS011;702;49.466;11.086;2023-03-03T01:21:07;36.50;;;23.07;;
1414;SDS011;702;49.466;11.086;2023-03-03T01:23:34;32.47;;;22.10;;
1414;SDS011;702;49.466;11.086;2023-03-03T01:26:01;30.37;;;21.67;;
1414;SDS011;702;49.466;11.086;2023-03-03T01:28:30;35.57;;;21.70;;
1414;SDS011;702;49.466;11.086;2023-03-03T01:30:59;33.10;;;21.00;;
1414;SDS011;702;49.466;11.086;2023-03-03T01:33:28;30.90;;;21.07;;
1414;SDS011;702;49.466;11.086;2023-03-03T01:35:58;33.20;;;21.10;;
1414;SDS011;702;49.466;11.086;2023-03-03T01:38:25;33.97;;;21.30;;
1414;SDS011;702;49.466;11.086;2023-03-03T01:40:53;34.03;;;21.17;;
1414;SDS011;702;49.466;11.086;2023-03-03T01:43:22;36.03;;;21.43;;
1414;SDS011;702;49.466;11.086;2023-03-03T01:48:57;38.00;;;21.77;;
1414;SDS011;702;49.466;11.086;2023-03-03T01:51:30;30.33;;;19.60;;
1414;SDS011;702;49.466;11.086;2023-03-03T01:54:00;31.10;;;19.50;;
1414;SDS011;702;49.466;11.086;2023-03-03T01:56:30;35.33;;;22.37;;
1414;SDS011;702;49.466;11.086;2023-03-03T01:58:58;32.80;;;20.43;;
1414;SDS011;702;49.466;11.086;2023-03-03T02:01:31;30.13;;;19.50;;
1414;SDS011;702;49.466;11.086;2023-03-03T02:03:59;27.33;;;18.20;;
1414;SDS011;702;49.466;11.086;2023-03-03T02:06:28;29.90;;;20.43;;
1414;SDS011;702;49.466;11.086;2023-03-03T02:09:03;32.60;;;20.90;;
1414;SDS011;702;49.466;11.086;2023-03-03T02:11:37;28.30;;;20.93;;
1414;SDS011;702;49.466;11.086;2023-03-03T02:14:07;30.03;;;20.23;;
1414;SDS011;702;49.466;11.086;2023-03-03T02:16:36;30.63;;;19.60;;
1414;SDS011;702;49.466;11.086;2023-03-03T02:19:03;29.97;;;20.60;;
1414;SDS011;702;49.466;11.086;2023-03-03T02:21:37;30.97;;;19.30;;
1414;SDS011;702;49.466;11.086;2023-03-03T02:24:06;32.70;;;21.13;;
1414;SDS011;702;49.466;11.086;2023-03-03T02:26:41;28.33;;;18.70;;
1414;SDS011;702;49.466;11.086;2023-03-03T02:29:09;30.80;;;19.70;;
1414;SDS011;702;49.466;11.086;2023-03-03T02:31:37;32.20;;;20.30;;
1414;SDS011;702;49.466;11.086;2023-03-03T02:34:04;29.80;;;20.90;;
1414;SDS011;702;49.466;11.086;2023-03-03T02:36:32;38.17;;;21.10;;
1414;SDS011;702;49.466;11.086;2023-03-03T02:39:03;30.20;;;18.67;;
1414;SDS011;702;49.466;11.086;2023-03-03T02:41:35;34.77;;;21.07;;
1414;SDS011;702;49.466;11.086;2023-03-03T02:44:08;31.83;;;18.60;;
1414;SDS011;702;49.466;11.086;2023-03-03T02:46:39;33.47;;;20.27;;
1414;SDS011;702;49.466;11.086;2023-03-03T02:49:09;35.23;;;19.20;;
1414;SDS011;702;49.466;11.086;2023-03-03T02:51:39;31.10;;;20.50;;
1414;SDS011;702;49.466;11.086;2023-03-03T02:54:07;30.80;;;19.83;;
1414;SDS011;702;49.466;11.086;2023-03-03T02:56:36;32.90;;;21.60;;
1414;SDS011;702;49.466;11.086;2023-03-03T02:59:05;37.33;;;23.73;;
1414;SDS011;702;49.466;11.086;2023-03-03T03:01:33;32.10;;;20.93;;
1414;SDS011;702;49.466;11.086;2023-03-03T03:04:02;33.63;;;20.97;;
1414;SDS011;702;49.466;11.086;2023-03-03T03:06:32;36.73;;;23.10;;
1414;SDS011;702;49.466;11.086;2023-03-03T03:09:00;35.83;;;22.50;;
1414;SDS011;702;49.466;11.086;2023-03-03T03:11:27;31.43;;;20.10;;
1414;SDS011;702;49.466;11.086;2023-03-03T03:13:54;30.73;;;20.30;;
1414;SDS011;702;49.466;11.086;2023-03-03T03:16:23;36.43;;;22.40;;
1414;SDS011;702;49.466;11.086;2023-03-03T03:18:50;39.73;;;24.97;;
1414;SDS011;702;49.466;11.086;2023-03-03T03:21:18;43.83;;;25.83;;
1414;SDS011;702;49.466;11.086;2023-03-03T03:23:45;36.00;;;24.27;;
1414;SDS011;702;49.466;11.086;2023-03-03T03:26:12;39.70;;;24.97;;
1414;SDS011;702;49.466;11.086;2023-03-03T03:28:39;47.33;;;28.67;;
1414;SDS011;702;49.466;11.086;2023-03-03T03:31:07;45.30;;;27.70;;
1414;SDS011;702;49.466;11.086;2023-03-03T03:33:36;43.40;;;27.03;;
1414;SDS011;702;49.466;11.086;2023-03-03T03:36:04;41.53;;;25.90;;
1414;SDS011;702;49.466;11.086;2023-03-03T03:38:33;38.87;;;24.70;;
1414;SDS011;702;49.466;11.086;2023-03-03T03:41:02;38.93;;;23.50;;
1414;SDS011;702;49.466;11.086;2023-03-03T03:43:30;36.00;;;23.43;;
1414;SDS011;702;49.466;11.086;2023-03-03T03:45:58;32.33;;;21.73;;
1414;SDS011;702;49.466;11.086;2023-03-03T03:48:25;39.47;;;23.40;;
1414;SDS011;702;49.466;11.086;2023-03-03T03:50:54;36.37;;;21.63;;
1414;SDS011;702;49.466;11.086;2023-03-03T03:53:22;30.60;;;19.37;;
1414;SDS011;702;49.466;11.086;2023-03-03T03:55:49;27.77;;;17.93;;
1414;SDS011;702;49.466;11.086;2023-03-03T03:58:17;28.43;;;18.27;;
1414;SDS011;702;49.466;11.086;2023-03-03T04:00:45;24.47;;;15.80;;
1414;SDS011;702;49.466;11.086;2023-03-03T04:03:12;25.07;;;17.57;;
1414;SDS011;702;49.466;11.086;2023-03-03T04:05:40;26.47;;;16.77;;
1414;SDS011;702;49.466;11.086;2023-03-03T04:08:09;30.60;;;19.23;;
1414;SDS011;702;49.466;11.086;2023-03-03T04:10:36;32.70;;;20.40;;
1414;SDS011;702;49.466;11.086;2023-03-03T04:13:04;33.70;;;22.00;;
1414;SDS011;702;49.466;11.086;2023-03-03T04:15:31;35.10;;;22.23;;
1414;SDS011;702;49.466;11.086;2023-03-03T04:17:58;34.50;;;22.87;;
1414;SDS011;702;49.466;11.086;2023-03-03T04:20:26;39.00;;;22.33;;
1414;SDS011;702;49.466;11.086;2023-03-03T04:22:53;39.47;;;24.90;;
1414;SDS011;702;49.466;11.086;2023-03-03T04:25:23;40.57;;;25.57;;
1414;SDS011;702;49.466;11.086;2023-03-03T04:27:50;43.23;;;26.93;;
1414;SDS011;702;49.466;11.086;2023-03-03T04:30:18;43.00;;;24.27;;
1414;SDS011;702;49.466;11.086;2023-03-03T04:32:46;37.30;;;23.53;;
1414;SDS011;702;49.466;11.086;2023-03-03T04:35:13;33.30;;;21.07;;
1414;SDS011;702;49.466;11.086;2023-03-03T04:37:41;54.63;;;33.57;;
1414;SDS011;702;49.466;11.086;2023-03-03T04:40:08;50.80;;;28.83;;
1414;SDS011;702;49.466;11.086;2023-03-03T04:42:38;48.80;;;30.97;;
1414;SDS011;702;49.466;11.086;2023-03-03T04:45:05;44.17;;;25.00;;
1414;SDS011;702;49.466;11.086;2023-03-03T04:47:34;31.27;;;21.67;;
1414;SDS011;702;49.466;11.086;2023-03-03T04:50:01;40.17;;;24.93;;
1414;SDS011;702;49.466;11.086;2023-03-03T04:52:29;42.47;;;24.53;;
1414;SDS011;702;49.466;11.086;2023-03-03T04:54:56;87.27;;;40.13;;
1414;SDS011;702;49.466;11.086;2023-03-03T04:57:23;109.83;;;49.30;;
1414;SDS011;702;49.466;11.086;2023-03-03T04:59:52;118.83;;;53.93;;
1414;SDS011;702;49.466;11.086;2023-03-03T05:02:20;95.13;;;44.17;;
1414;SDS011;702;49.466;11.086;2023-03-03T05:04:47;57.60;;;29.73;;
1414;SDS011;702;49.466;11.086;2023-03-03T05:07:14;46.13;;;25.03;;
1414;SDS011;702;49.466;11.086;2023-03-03T05:09:43;33.20;;;20.63;;
1414;SDS011;702;49.466;11.086;2023-03-03T05:12:10;31.87;;;21.20;;
1414;SDS011;702;49.466;11.086;2023-03-03T05:14:37;33.20;;;20.43;;
1414;SDS011;702;49.466;11.086;2023-03-03T05:17:06;29.10;;;19.30;;
1414;SDS011;702;49.466;11.086;2023-03-03T05:19:35;28.80;;;19.50;;
1414;SDS011;702;49.466;11.086;2023-03-03T05:22:02;33.30;;;19.37;;
1414;SDS011;702;49.466;11.086;2023-03-03T05:24:29;30.60;;;19.30;;
1414;SDS011;702;49.466;11.086;2023-03-03T05:26:56;31.20;;;20.70;;
1414;SDS011;702;49.466;11.086;2023-03-03T05:29:24;35.33;;;20.20;;
1414;SDS011;702;49.466;11.086;2023-03-03T05:31:52;32.47;;;20.03;;
1414;SDS011;702;49.466;11.086;2023-03-03T05:34:21;35.10;;;21.10;;
1414;SDS011;702;49.466;11.086;2023-03-03T05:36:48;32.40;;;20.13;;
1414;SDS011;702;49.466;11.086;2023-03-03T05:39:16;31.30;;;19.67;;
1414;SDS011;702;49.466;11.086;2023-03-03T05:41:43;35.17;;;20.23;;
1414;SDS011;702;49.466;11.086;2023-03-03T05:44:10;32.67;;;20.87;;
1414;SDS011;702;49.466;11.086;2023-03-03T05:46:38;35.77;;;21.37;;
1414;SDS011;702;49.466;11.086;2023-03-03T05:49:06;36.03;;;22.57;;
1414;SDS011;702;49.466;11.086;2023-03-03T05:51:35;33.30;;;19.43;;
1414;SDS011;702;49.466;11.086;2023-03-03T05:54:02;31.97;;;20.50;;
1414;SDS011;702;49.466;11.086;2023-03-03T05:56:30;35.57;;;21.17;;
1414;SDS011;702;49.466;11.086;2023-03-03T05:58:57;35.77;;;21.60;;
1414;SDS011;702;49.466;11.086;2023-03-03T06:01:24;31.67;;;19.77;;
1414;SDS011;702;49.466;11.086;2023-03-03T06:03:53;40.37;;;20.30;;
1414;SDS011;702;49.466;11.086;2023-03-03T06:06:21;35.67;;;23.33;;
1414;SDS011;702;49.466;11.086;2023-03-03T06:08:49;37.87;;;21.00;;
1414;SDS011;702;49.466;11.086;2023-03-03T06:11:18;33.83;;;20.80;;
1414;SDS011;702;49.466;11.086;2023-03-03T06:13:45;36.10;;;21.00;;
1414;SDS011;702;49.466;11.086;2023-03-03T06:16:12;33.27;;;21.60;;
1414;SDS011;702;49.466;11.086;2023-03-03T06:18:39;34.57;;;21.93;;
1414;SDS011;702;49.466;11.086;2023-03-03T06:21:06;33.33;;;20.93;;
1414;SDS011;702;49.466;11.086;2023-03-03T06:23:34;38.73;;;21.97;;
1414;SDS011;702;49.466;11.086;2023-03-03T06:26:02;39.00;;;22.07;;
1414;SDS011;702;49.466;11.086;2023-03-03T06:28:30;38.00;;;23.23;;
1414;SDS011;702;49.466;11.086;2023-03-03T06:30:58;38.80;;;22.87;;
1414;SDS011;702;49.466;11.086;2023-03-03T06:33:25;36.60;;;21.70;;
1414;SDS011;702;49.466;11.086;2023-03-03T06:35:53;34.30;;;21.97;;
1414;SDS011;702;49.466;11.086;2023-03-03T06:38:20;34.90;;;21.03;;
1414;SDS011;702;49.466;11.086;2023-03-03T06:40:47;39.70;;;23.17;;
1414;SDS011;702;49.466;11.086;2023-03-03T06:43:16;36.27;;;22.23;;
1414;SDS011;702;49.466;11.086;2023-03-03T06:45:43;34.60;;;22.07;;
1414;SDS011;702;49.466;11.086;2023-03-03T06:48:11;38.60;;;22.03;;
1414;SDS011;702;49.466;11.086;2023-03-03T06:50:38;34.67;;;22.07;;
1414;SDS011;702;49.466;11.086;2023-03-03T06:53:09;36.13;;;23.13;;
1414;SDS011;702;49.466;11.086;2023-03-03T06:55:39;37.90;;;23.43;;
1414;SDS011;702;49.466;11.086;2023-03-03T06:58:10;42.47;;;22.90;;
1414;SDS011;702;49.466;11.086;2023-03-03T07:00:41;36.17;;;23.77;;
1414;SDS011;702;49.466;11.086;2023-03-03T07:03:11;34.90;;;23.10;;
1414;SDS011;702;49.466;11.086;2023-03-03T07:05:42;40.53;;;22.70;;
1414;SDS011;702;49.466;11.086;2023-03-03T07:08:12;37.87;;;24.60;;
1414;SDS011;702;49.466;11.086;2023-03-03T07:10:41;40.70;;;23.90;;
1414;SDS011;702;49.466;11.086;2023-03-03T07:13:17;41.43;;;25.77;;
1414;SDS011;702;49.466;11.086;2023-03-03T07:15:48;39.33;;;25.13;;
1414;SDS011;702;49.466;11.086;2023-03-03T07:18:30;37.50;;;24.90;;
1414;SDS011;702;49.466;11.086;2023-03-03T07:21:16;37.37;;;25.60;;
1414;SDS011;702;49.466;11.086;2023-03-03T07:23:47;37.80;;;24.30;;
1414;SDS011;702;49.466;11.086;2023-03-03T07:26:16;41.90;;;24.10;;
1414;SDS011;702;49.466;11.086;2023-03-03T07:28:50;40.93;;;24.10;;
1414;SDS011;702;49.466;11.086;2023-03-03T07:31:29;37.50;;;23.90;;
1414;SDS011;702;49.466;11.086;2023-03-03T07:34:00;39.80;;;23.50;;
1414;SDS011;702;49.466;11.086;2023-03-03T07:36:33;34.13;;;21.97;;
1414;SDS011;702;49.466;11.086;2023-03-03T07:39:03;41.23;;;24.27;;
1414;SDS011;702;49.466;11.086;2023-03-03T07:41:51;41.83;;;24.40;;
1414;SDS011;702;49.466;11.086;2023-03-03T07:44:21;37.07;;;22.30;;
1414;SDS011;702;49.466;11.086;2023-03-03T07:47:09;40.73;;;24.40;;
1414;SDS011;702;49.466;11.086;2023-03-03T07:49:45;38.03;;;23.70;;
1414;SDS011;702;49.466;11.086;2023-03-03T07:52:19;41.47;;;25.90;;
1414;SDS011;702;49.466;11.086;2023-03-03T07:54:53;41.27;;;24.13;;
1414;SDS011;702;49.466;11.086;2023-03-03T07:57:24;39.67;;;25.30;;
1414;SDS011;702;49.466;11.086;2023-03-03T07:59:54;47.47;;;25.50;;
1414;SDS011;702;49.466;11.086;2023-03-03T08:02:37;41.10;;;25.53;;
1414;SDS011;702;49.466;11.086;2023-03-03T08:05:20;42.97;;;25.33;;
1414;SDS011;702;49.466;11.086;2023-03-03T08:10:55;40.47;;;24.50;;
1414;SDS011;702;49.466;11.086;2023-03-03T08:13:27;40.53;;;24.20;;
1414;SDS011;702;49.466;11.086;2023-03-03T08:16:03;38.63;;;23.47;;
1414;SDS011;702;49.466;11.086;2023-03-03T08:18:57;38.60;;;24.10;;
1414;SDS011;702;49.466;11.086;2023-03-03T08:21:29;40.23;;;25.40;;
1414;SDS011;702;49.466;11.086;2023-03-03T08:23:56;39.33;;;24.00;;
1414;SDS011;702;49.466;11.086;2023-03-03T08:26:24;38.27;;;24.07;;
1414;SDS011;702;49.466;11.086;2023-03-03T08:28:52;41.60;;;24.37;;
1414;SDS011;702;49.466;11.086;2023-03-03T08:31:20;35.53;;;24.00;;
1414;SDS011;702;49.466;11.086;2023-03-03T08:33:47;36.70;;;23.20;;
1414;SDS011;702;49.466;11.086;2023-03-03T08:36:16;41.37;;;25.20;;
1414;SDS011;702;49.466;11.086;2023-03-03T08:38:44;37.90;;;24.10;;
1414;SDS011;702;49.466;11.086;2023-03-03T08:41:11;43.77;;;26.23;;
1414;SDS011;702;49.466;11.086;2023-03-03T08:43:39;38.50;;;25.20;;
1414;SDS011;702;49.466;11.086;2023-03-03T08:46:06;38.30;;;23.67;;
1414;SDS011;702;49.466;11.086;2023-03-03T08:48:34;46.00;;;26.10;;
1414;SDS011;702;49.466;11.086;2023-03-03T08:51:01;41.33;;;25.63;;
1414;SDS011;702;49.466;11.086;2023-03-03T08:53:30;40.87;;;23.87;;
1414;SDS011;702;49.466;11.086;2023-03-03T08:56:00;34.23;;;22.93;;
1414;SDS011;702;49.466;11.086;2023-03-03T08:58:28;42.83;;;26.17;;
1414;SDS011;702;49.466;11.086;2023-03-03T09:00:57;38.40;;;24.00;;
1414;SDS011;702;49.466;11.086;2023-03-03T09:03:24;37.97;;;24.90;;
1414;SDS011;702;49.466;11.086;2023-03-03T09:05:51;37.27;;;23.60;;
1414;SDS011;702;49.466;11.086;2023-03-03T09:08:18;42.13;;;25.13;;
1414;SDS011;702;49.466;11.086;2023-03-03T09:10:47;33.97;;;23.80;;
1414;SDS011;702;49.466;11.086;2023-03-03T09:13:14;37.87;;;24.33;;
1414;SDS011;702;49.466;11.086;2023-03-03T09:15:44;42.43;;;24.60;;
1414;SDS011;702;49.466;11.086;2023-03-03T09:18:13;40.23;;;24.87;;
1414;SDS011;702;49.466;11.086;2023-03-03T09:20:42;38.40;;;23.47;;
1414;SDS011;702;49.466;11.086;2023-03-03T09:23:29;36.67;;;24.60;;
1414;SDS011;702;49.466;11.086;2023-03-03T09:28:53;38.87;;;24.53;;
1414;SDS011;702;49.466;11.086;2023-03-03T09:31:23;35.80;;;24.03;;
1414;SDS011;702;49.466;11.086;2023-03-03T09:33:53;40.50;;;23.50;;
1414;SDS011;702;49.466;11.086;2023-03-03T09:36:24;38.50;;;24.30;;
1414;SDS011;702;49.466;11.086;2023-03-03T09:38:54;36.90;;;23.40;;
1414;SDS011;702;49.466;11.086;2023-03-03T09:41:29;34.97;;;22.20;;
1414;SDS011;702;49.466;11.086;2023-03-03T09:44:39;36.20;;;22.60;;
1414;SDS011;702;49.466;11.086;2023-03-03T09:47:39;39.90;;;23.20;;
1414;SDS011;702;49.466;11.086;2023-03-03T09:50:29;37.17;;;23.23;;
1414;SDS011;702;49.466;11.086;2023-03-03T09:53:09;38.10;;;24.30;;
1414;SDS011;702;49.466;11.086;2023-03-03T09:55:49;33.40;;;24.03;;
1414;SDS011;702;49.466;11.086;2023-03-03T09:58:31;34.13;;;22.13;;
1414;SDS011;702;49.466;11.086;2023-03-03T10:01:18;35.63;;;22.93;;
1414;SDS011;702;49.466;11.086;2023-03-03T10:04:10;34.90;;;23.13;;
1414;SDS011;702;49.466;11.086;2023-03-03T10:06:52;34.87;;;23.27;;
1414;SDS011;702;49.466;11.086;2023-03-03T10:09:47;33.80;;;22.70;;
1414;SDS011;702;49.466;11.086;2023-03-03T10:12:37;40.90;;;23.30;;
1414;SDS011;702;49.466;11.086;2023-03-03T10:15:24;33.37;;;23.17;;
1414;SDS011;702;49.466;11.086;2023-03-03T10:18:01;34.20;;;22.40;;
1414;SDS011;702;49.466;11.086;2023-03-03T10:20:55;35.67;;;23.63;;
1414;SDS011;702;49.466;11.086;2023-03-03T10:23:37;33.00;;;22.70;;
1414;SDS011;702;49.466;11.086;2023-03-03T10:26:22;31.47;;;21.07;;
1414;SDS011;702;49.466;11.086;2023-03-03T10:29:10;30.67;;;20.90;;
1414;SDS011;702;49.466;11.086;2023-03-03T10:31:56;34.67;;;21.50;;
1414;SDS011;702;49.466;11.086;2023-03-03T10:34:54;33.57;;;22.83;;
1414;SDS011;702;49.466;11.086;2023-03-03T10:37:47;34.37;;;21.43;;
1414;SDS011;702;49.466;11.086;2023-03-03T10:40:32;29.73;;;21.90;;
1414;SDS011;702;49.466;11.086;2023-03-03T10:48:49;29.20;;;19.33;;
1414;SDS011;702;49.466;11.086;2023-03-03T10:51:27;28.97;;;21.20;;
1414;SDS011;702;49.466;11.086;2023-03-03T10:54:06;30.07;;;20.67;;
1414;SDS011;702;49.466;11.086;2023-03-03T10:56:45;31.17;;;21.30;;
1414;SDS011;702;49.466;11.086;2023-03-03T10:59:28;31.33;;;24.08;;
1414;SDS011;702;49.466;11.086;2023-03-03T11:02:20;31.03;;;21.47;;
1414;SDS011;702;49.466;11.086;2023-03-03T11:07:55;29.27;;;19.50;;
1414;SDS011;702;49.466;11.086;2023-03-03T11:10:29;28.90;;;21.63;;
1414;SDS011;702;49.466;11.086;2023-03-03T11:13:15;32.93;;;21.23;;
1414;SDS011;702;49.466;11.086;2023-03-03T11:15:57;27.03;;;17.83;;
1414;SDS011;702;49.466;11.086;2023-03-03T11:18:39;27.10;;;20.10;;
1414;SDS011;702;49.466;11.086;2023-03-03T11:21:20;25.77;;;18.80;;
1414;SDS011;702;49.466;11.086;2023-03-03T11:23:54;26.57;;;18.30;;
1414;SDS011;702;49.466;11.086;2023-03-03T11:27:05;31.33;;;20.60;;
1414;SDS011;702;49.466;11.086;2023-03-03T11:29:47;28.47;;;21.20;;
1414;SDS011;702;49.466;11.086;2023-03-03T11:32:40;31.02;;;24.20;;
1414;SDS011;702;49.466;11.086;2023-03-03T11:35:21;24.00;;;18.47;;
1414;SDS011;702;49.466;11.086;2023-03-03T11:37:58;25.30;;;18.90;;
1414;SDS011;702;49.466;11.086;2023-03-03T11:40:44;26.23;;;18.30;;
1414;SDS011;702;49.466;11.086;2023-03-03T11:43:16;28.73;;;18.87;;
1414;SDS011;702;49.466;11.086;2023-03-03T11:45:49;25.03;;;18.00;;
1414;SDS011;702;49.466;11.086;2023-03-03T11:48:21;25.73;;;17.93;;
1414;SDS011;702;49.466;11.086;2023-03-03T11:51:02;24.23;;;16.40;;
1414;SDS011;702;49.466;11.086;2023-03-03T11:53:38;23.00;;;16.10;;
1414;SDS011;702;49.466;11.086;2023-03-03T11:56:21;25.03;;;18.37;;
1414;SDS011;702;49.466;11.086;2023-03-03T11:58:53;25.10;;;18.63;;
1414;SDS011;702;49.466;11.086;2023-03-03T12:01:41;24.00;;;18.93;;
1414;SDS011;702;49.466;11.086;2023-03-03T12:04:14;27.40;;;18.90;;
1414;SDS011;702;49.466;11.086;2023-03-03T12:06:52;25.73;;;19.00;;
1414;SDS011;702;49.466;11.086;2023-03-03T12:09:37;25.23;;;18.80;;
1414;SDS011;702;49.466;11.086;2023-03-03T12:12:11;24.13;;;18.17;;
1414;SDS011;702;49.466;11.086;2023-03-03T12:14:48;24.47;;;18.30;;
1414;SDS011;702;49.466;11.086;2023-03-03T12:20:42;28.70;;;18.60;;
1414;SDS011;702;49.466;11.086;2023-03-03T12:23:19;23.27;;;17.23;;
1414;SDS011;702;49.466;11.086;2023-03-03T12:26:07;25.90;;;17.03;;
1414;SDS011;702;49.466;11.086;2023-03-03T12:28:39;22.37;;;17.07;;
1414;SDS011;702;49.466;11.086;2023-03-03T12:31:15;22.97;;;18.40;;
1414;SDS011;702;49.466;11.086;2023-03-03T12:34:01;26.33;;;18.90;;
1414;SDS011;702;49.466;11.086;2023-03-03T12:36:44;23.33;;;18.03;;
1414;SDS011;702;49.466;11.086;2023-03-03T12:39:39;24.80;;;17.80;;
1414;SDS011;702;49.466;11.086;2023-03-03T12:42:20;21.03;;;16.97;;
1414;SDS011;702;49.466;11.086;2023-03-03T12:45:01;26.93;;;17.53;;
1414;SDS011;702;49.466;11.086;2023-03-03T12:47:44;24.03;;;17.63;;
1414;SDS011;702;49.466;11.086;2023-03-03T12:50:27;23.57;;;17.83;;
1414;SDS011;702;49.466;11.086;2023-03-03T12:53:05;22.30;;;18.20;;
1414;SDS011;702;49.466;11.086;2023-03-03T12:55:47;20.17;;;16.40;;
1414;SDS011;702;49.466;11.086;2023-03-03T12:58:24;22.30;;;17.23;;
1414;SDS011;702;49.466;11.086;2023-03-03T13:01:08;20.00;;;16.30;;
1414;SDS011;702;49.466;11.086;2023-03-03T13:03:54;20.70;;;16.40;;
1414;SDS011;702;49.466;11.086;2023-03-03T13:06:31;19.40;;;16.13;;
1414;SDS011;702;49.466;11.086;2023-03-03T13:09:08;20.20;;;16.00;;
1414;SDS011;702;49.466;11.086;2023-03-03T13:11:51;19.57;;;16.00;;
1414;SDS011;702;49.466;11.086;2023-03-03T13:14:34;19.87;;;16.13;;
1414;SDS011;702;49.466;11.086;2023-03-03T13:17:14;22.37;;;17.00;;
1414;SDS011;702;49.466;11.086;2023-03-03T13:19:48;22.57;;;17.27;;
1414;SDS011;702;49.466;11.086;2023-03-03T13:22:26;22.07;;;16.70;;
1414;SDS011;702;49.466;11.086;2023-03-03T13:25:04;21.50;;;15.97;;
1414;SDS011;702;49.466;11.086;2023-03-03T13:27:51;22.47;;;16.93;;
1414;SDS011;702;49.466;11.086;2023-03-03T13:30:29;20.50;;;14.57;;
1414;SDS011;702;49.466;11.086;2023-03-03T13:33:00;22.97;;;15.53;;
1414;SDS011;702;49.466;11.086;2023-03-03T13:35:37;19.80;;;13.83;;
1414;SDS011;702;49.466;11.086;2023-03-03T13:38:11;21.23;;;15.73;;
1414;SDS011;702;49.466;11.086;2023-03-03T13:40:42;17.30;;;13.80;;
1414;SDS011;702;49.466;11.086;2023-03-03T13:43:16;20.10;;;13.90;;
1414;SDS011;702;49.466;11.086;2023-03-03T13:45:57;18.07;;;14.43;;
1414;SDS011;702;49.466;11.086;2023-03-03T13:48:36;19.40;;;14.83;;
1414;SDS011;702;49.466;11.086;2023-03-03T13:51:23;16.97;;;13.40;;
1414;SDS011;702;49.466;11.086;2023-03-03T13:54:08;18.23;;;12.60;;
1414;SDS011;702;49.466;11.086;2023-03-03T13:56:59;18.13;;;13.13;;
1414;SDS011;702;49.466;11.086;2023-03-03T13:59:48;18.10;;;12.70;;
1414;SDS011;702;49.466;11.086;2023-03-03T14:02:37;17.40;;;12.37;;
1414;SDS011;702;49.466;11.086;2023-03-03T14:05:24;14.80;;;11.90;;
1414;SDS011;702;49.466;11.086;2023-03-03T14:07:57;17.83;;;14.10;;
1414;SDS011;702;49.466;11.086;2023-03-03T14:10:28;17.20;;;13.10;;
1414;SDS011;702;49.466;11.086;2023-03-03T14:13:00;15.30;;;12.60;;
1414;SDS011;702;49.466;11.086;2023-03-03T14:15:31;19.07;;;12.80;;
1414;SDS011;702;49.466;11.086;2023-03-03T14:18:13;16.13;;;13.07;;
1414;SDS011;702;49.466;11.086;2023-03-03T14:20:50;15.40;;;11.77;;
1414;SDS011;702;49.466;11.086;2023-03-03T14:23:20;16.43;;;11.53;;
1414;SDS011;702;49.466;11.086;2023-03-03T14:25:55;17.20;;;11.80;;
1414;SDS011;702;49.466;11.086;2023-03-03T14:28:25;15.60;;;11.57;;
1414;SDS011;702;49.466;11.086;2023-03-03T14:30:55;14.07;;;11.80;;
1414;SDS011;702;49.466;11.086;2023-03-03T14:33:28;17.73;;;12.37;;
1414;SDS011;702;49.466;11.086;2023-03-03T14:36:00;16.80;;;11.83;;
1414;SDS011;702;49.466;11.086;2023-03-03T14:38:42;14.17;;;10.73;;
1414;SDS011;702;49.466;11.086;2023-03-03T14:41:17;14.13;;;10.93;;
1414;SDS011;702;49.466;11.086;2023-03-03T14:43:57;14.80;;;11.30;;
1414;SDS011;702;49.466;11.086;2023-03-03T14:46:31;15.40;;;11.30;;
1414;SDS011;702;49.466;11.086;2023-03-03T14:49:04;14.40;;;10.70;;
1414;SDS011;702;49.466;11.086;2023-03-03T14:51:40;16.33;;;10.87;;
1414;SDS011;702;49.466;11.086;2023-03-03T14:54:13;22.73;;;12.00;;
1414;SDS011;702;49.466;11.086;2023-03-03T14:56:55;15.30;;;11.07;;
1414;SDS011;702;49.466;11.086;2023-03-03T14:59:26;15.27;;;11.77;;
1414;SDS011;702;49.466;11.086;2023-03-03T15:02:09;18.03;;;11.63;;
1414;SDS011;702;49.466;11.086;2023-03-03T15:05:12;14.57;;;11.50;;
1414;SDS011;702;49.466;11.086;2023-03-03T15:07:49;16.20;;;11.37;;
1414;SDS011;702;49.466;11.086;2023-03-03T15:10:26;14.37;;;11.47;;
1414;SDS011;702;49.466;11.086;2023-03-03T15:13:07;14.73;;;11.53;;
1414;SDS011;702;49.466;11.086;2023-03-03T15:15:59;19.17;;;9.93;;
1414;SDS011;702;49.466;11.086;2023-03-03T15:18:31;19.67;;;13.60;;
1414;SDS011;702;49.466;11.086;2023-03-03T15:21:02;17.37;;;12.53;;
1414;SDS011;702;49.466;11.086;2023-03-03T15:23:34;19.17;;;13.47;;
1414;SDS011;702;49.466;11.086;2023-03-03T15:26:18;17.10;;;12.23;;
1414;SDS011;702;49.466;11.086;2023-03-03T15:28:53;15.10;;;12.70;;
1414;SDS011;702;49.466;11.086;2023-03-03T15:31:32;14.40;;;11.60;;
1414;SDS011;702;49.466;11.086;2023-03-03T15:34:19;15.23;;;12.07;;
1414;SDS011;702;49.466;11.086;2023-03-03T15:37:02;14.33;;;11.00;;
1414;SDS011;702;49.466;11.086;2023-03-03T15:39:47;16.53;;;12.13;;
1414;SDS011;702;49.466;11.086;2023-03-03T15:42:26;12.83;;;11.33;;
1414;SDS011;702;49.466;11.086;2023-03-03T15:45:02;15.83;;;12.20;;
1414;SDS011;702;49.466;11.086;2023-03-03T15:47:43;17.13;;;12.20;;